sensor_id;sensor_type;location;lat;lon;timestamp;pressure;altitude;pressure_sealevel;temperature
22828;BMP180;11580;52.562;13.418;2022-09-09T00:01:54;100174.00;;;18.90
22828;BMP180;11580;52.562;13.418;2022-09-09T00:04:29;100164.00;;;18.90
22828;BMP180;11580;52.562;13.418;2022-09-09T00:07:03;100158.00;;;18.90
22828;BMP180;11580;52.562;13.418;2022-09-09T00:09:40;100158.00;;;18.90
22828;BMP180;11580;52.562;13.418;2022-09-09T00:12:16;100161.00;;;18.90
22828;BMP180;11580;52.562;13.418;2022-09-09T00:14:51;100153.00;;;18.90
22828;BMP180;11580;52.562;13.418;2022-09-09T00:17:34;100161.00;;;18.80
22828;BMP180;11580;52.562;13.418;2022-09-09T00:20:12;100159.00;;;18.80
22828;BMP180;11580;52.562;13.418;2022-09-09T00:22:47;100157.00;;;18.80
22828;BMP180;11580;52.562;13.418;2022-09-09T00:25:31;100155.00;;;18.80
22828;BMP180;11580;52.562;13.418;2022-09-09T00:28:00;100147.00;;;18.80
22828;BMP180;11580;52.562;13.418;2022-09-09T00:30:34;100147.00;;;18.80
22828;BMP180;11580;52.562;13.418;2022-09-09T00:33:11;100148.00;;;18.80
22828;BMP180;11580;52.562;13.418;2022-09-09T00:35:45;100149.00;;;18.70
22828;BMP180;11580;52.562;13.418;2022-09-09T00:38:18;100147.00;;;18.70
22828;BMP180;11580;52.562;13.418;2022-09-09T00:40:53;100146.00;;;18.70
22828;BMP180;11580;52.562;13.418;2022-09-09T00:43:28;100141.00;;;18.70
22828;BMP180;11580;52.562;13.418;2022-09-09T00:46:32;100147.00;;;18.70
22828;BMP180;11580;52.562;13.418;2022-09-09T00:49:09;100141.00;;;18.60
22828;BMP180;11580;52.562;13.418;2022-09-09T00:51:54;100143.00;;;18.60
22828;BMP180;11580;52.562;13.418;2022-09-09T00:54:45;100139.00;;;18.60
22828;BMP180;11580;52.562;13.418;2022-09-09T00:57:26;100145.00;;;18.60
22828;BMP180;11580;52.562;13.418;2022-09-09T01:00:20;100144.00;;;18.60
22828;BMP180;11580;52.562;13.418;2022-09-09T01:03:18;100150.00;;;18.60
22828;BMP180;11580;52.562;13.418;2022-09-09T01:05:55;100148.00;;;18.50
22828;BMP180;11580;52.562;13.418;2022-09-09T01:08:42;100147.00;;;18.50
22828;BMP180;11580;52.562;13.418;2022-09-09T01:11:22;100146.00;;;18.50
22828;BMP180;11580;52.562;13.418;2022-09-09T01:13:58;100134.00;;;18.50
22828;BMP180;11580;52.562;13.418;2022-09-09T01:16:32;100149.00;;;18.50
22828;BMP180;11580;52.562;13.418;2022-09-09T01:19:01;100158.00;;;18.50
22828;BMP180;11580;52.562;13.418;2022-09-09T01:21:41;100164.00;;;18.50
22828;BMP180;11580;52.562;13.418;2022-09-09T01:24:22;100158.00;;;18.50
22828;BMP180;11580;52.562;13.418;2022-09-09T01:27:13;100147.00;;;18.50
22828;BMP180;11580;52.562;13.418;2022-09-09T01:29:42;100148.00;;;18.50
22828;BMP180;11580;52.562;13.418;2022-09-09T01:32:40;100147.00;;;18.40
22828;BMP180;11580;52.562;13.418;2022-09-09T01:35:17;100147.00;;;18.40
22828;BMP180;11580;52.562;13.418;2022-09-09T01:37:48;100148.00;;;18.40
22828;BMP180;11580;52.562;13.418;2022-09-09T01:40:16;100150.00;;;18.40
22828;BMP180;11580;52.562;13.418;2022-09-09T01:42:45;100142.00;;;18.40
22828;BMP180;11580;52.562;13.418;2022-09-09T01:45:13;100143.00;;;18.40
22828;BMP180;11580;52.562;13.418;2022-09-09T01:47:41;100151.00;;;18.40
22828;BMP180;11580;52.562;13.418;2022-09-09T01:50:29;100147.00;;;18.30
22828;BMP180;11580;52.562;13.418;2022-09-09T01:53:00;100148.00;;;18.30
22828;BMP180;11580;52.562;13.418;2022-09-09T01:55:33;100153.00;;;18.30
22828;BMP180;11580;52.562;13.418;2022-09-09T01:58:19;100151.00;;;18.30
22828;BMP180;11580;52.562;13.418;2022-09-09T02:01:10;100148.00;;;18.30
22828;BMP180;11580;52.562;13.418;2022-09-09T02:03:47;100123.00;;;18.20
22828;BMP180;11580;52.562;13.418;2022-09-09T02:06:27;100153.00;;;18.20
22828;BMP180;11580;52.562;13.418;2022-09-09T02:09:06;100148.00;;;18.20
22828;BMP180;11580;52.562;13.418;2022-09-09T02:11:35;100152.00;;;18.20
22828;BMP180;11580;52.562;13.418;2022-09-09T02:14:25;100148.00;;;18.20
22828;BMP180;11580;52.562;13.418;2022-09-09T02:16:59;100152.00;;;18.20
22828;BMP180;11580;52.562;13.418;2022-09-09T02:19:46;100153.00;;;18.10
22828;BMP180;11580;52.562;13.418;2022-09-09T02:22:26;100131.00;;;18.10
22828;BMP180;11580;52.562;13.418;2022-09-09T02:24:58;100164.00;;;18.10
22828;BMP180;11580;52.562;13.418;2022-09-09T02:27:29;100168.00;;;18.10
22828;BMP180;11580;52.562;13.418;2022-09-09T02:30:01;100167.00;;;18.10
22828;BMP180;11580;52.562;13.418;2022-09-09T02:32:38;100164.00;;;18.10
22828;BMP180;11580;52.562;13.418;2022-09-09T02:35:13;100165.00;;;18.10
22828;BMP180;11580;52.562;13.418;2022-09-09T02:37:44;100158.00;;;18.10
22828;BMP180;11580;52.562;13.418;2022-09-09T02:40:14;100154.00;;;18.10
22828;BMP180;11580;52.562;13.418;2022-09-09T02:42:48;100166.00;;;18.10
22828;BMP180;11580;52.562;13.418;2022-09-09T02:45:23;100142.00;;;18.10
22828;BMP180;11580;52.562;13.418;2022-09-09T02:48:04;100153.00;;;18.00
22828;BMP180;11580;52.562;13.418;2022-09-09T02:50:45;100157.00;;;18.00
22828;BMP180;11580;52.562;13.418;2022-09-09T02:53:17;100156.00;;;18.00
22828;BMP180;11580;52.562;13.418;2022-09-09T02:55:51;100157.00;;;18.00
22828;BMP180;11580;52.562;13.418;2022-09-09T02:58:22;100160.00;;;18.00
22828;BMP180;11580;52.562;13.418;2022-09-09T03:00:59;100154.00;;;18.00
22828;BMP180;11580;52.562;13.418;2022-09-09T03:03:29;100160.00;;;18.00
22828;BMP180;11580;52.562;13.418;2022-09-09T03:05:59;100159.00;;;18.00
22828;BMP180;11580;52.562;13.418;2022-09-09T03:08:27;100155.00;;;18.00
22828;BMP180;11580;52.562;13.418;2022-09-09T03:10:59;100159.00;;;18.00
22828;BMP180;11580;52.562;13.418;2022-09-09T03:13:29;100161.00;;;18.00
22828;BMP180;11580;52.562;13.418;2022-09-09T03:15:58;100166.00;;;18.00
22828;BMP180;11580;52.562;13.418;2022-09-09T03:18:27;100163.00;;;18.00
22828;BMP180;11580;52.562;13.418;2022-09-09T03:20:54;100170.00;;;18.00
22828;BMP180;11580;52.562;13.418;2022-09-09T03:23:23;100172.00;;;18.00
22828;BMP180;11580;52.562;13.418;2022-09-09T03:25:51;100180.00;;;18.00
22828;BMP180;11580;52.562;13.418;2022-09-09T03:28:27;100168.00;;;17.90
22828;BMP180;11580;52.562;13.418;2022-09-09T03:31:05;100175.00;;;17.90
22828;BMP180;11580;52.562;13.418;2022-09-09T03:33:38;100171.00;;;17.90
22828;BMP180;11580;52.562;13.418;2022-09-09T03:36:08;100173.00;;;17.90
22828;BMP180;11580;52.562;13.418;2022-09-09T03:38:36;100157.00;;;17.90
22828;BMP180;11580;52.562;13.418;2022-09-09T03:41:04;100175.00;;;17.90
22828;BMP180;11580;52.562;13.418;2022-09-09T03:43:34;100181.00;;;17.80
22828;BMP180;11580;52.562;13.418;2022-09-09T03:46:05;100177.00;;;17.80
22828;BMP180;11580;52.562;13.418;2022-09-09T03:48:32;100176.00;;;17.80
22828;BMP180;11580;52.562;13.418;2022-09-09T03:51:00;100185.00;;;17.80
22828;BMP180;11580;52.562;13.418;2022-09-09T03:53:31;100181.00;;;17.80
22828;BMP180;11580;52.562;13.418;2022-09-09T03:55:59;100179.00;;;17.80
22828;BMP180;11580;52.562;13.418;2022-09-09T03:58:28;100183.00;;;17.80
22828;BMP180;11580;52.562;13.418;2022-09-09T04:01:06;100170.00;;;17.80
22828;BMP180;11580;52.562;13.418;2022-09-09T04:03:35;100183.00;;;17.80
22828;BMP180;11580;52.562;13.418;2022-09-09T04:06:05;100178.00;;;17.80
22828;BMP180;11580;52.562;13.418;2022-09-09T04:08:34;100174.00;;;17.70
22828;BMP180;11580;52.562;13.418;2022-09-09T04:11:02;100145.00;;;17.70
22828;BMP180;11580;52.562;13.418;2022-09-09T04:13:32;100168.00;;;17.70
22828;BMP180;11580;52.562;13.418;2022-09-09T04:16:03;100175.00;;;17.70
22828;BMP180;11580;52.562;13.418;2022-09-09T04:18:32;100172.00;;;17.70
22828;BMP180;11580;52.562;13.418;2022-09-09T04:21:00;100168.00;;;17.70
22828;BMP180;11580;52.562;13.418;2022-09-09T04:23:30;100171.00;;;17.70
22828;BMP180;11580;52.562;13.418;2022-09-09T04:26:00;100172.00;;;17.70
22828;BMP180;11580;52.562;13.418;2022-09-09T04:28:30;100176.00;;;17.70
22828;BMP180;11580;52.562;13.418;2022-09-09T04:31:05;100182.00;;;17.70
22828;BMP180;11580;52.562;13.418;2022-09-09T04:33:35;100178.00;;;17.70
22828;BMP180;11580;52.562;13.418;2022-09-09T04:36:03;100181.00;;;17.80
22828;BMP180;11580;52.562;13.418;2022-09-09T04:38:30;100189.00;;;17.80
22828;BMP180;11580;52.562;13.418;2022-09-09T04:40:57;100195.00;;;17.80
22828;BMP180;11580;52.562;13.418;2022-09-09T04:43:25;100192.00;;;17.80
22828;BMP180;11580;52.562;13.418;2022-09-09T04:45:57;100191.00;;;17.80
22828;BMP180;11580;52.562;13.418;2022-09-09T04:48:25;100199.00;;;17.90
22828;BMP180;11580;52.562;13.418;2022-09-09T04:51:00;100184.00;;;17.90
22828;BMP180;11580;52.562;13.418;2022-09-09T04:53:30;100200.00;;;17.90
22828;BMP180;11580;52.562;13.418;2022-09-09T04:56:06;100200.00;;;17.90
22828;BMP180;11580;52.562;13.418;2022-09-09T04:58:38;100206.00;;;18.00
22828;BMP180;11580;52.562;13.418;2022-09-09T05:01:10;100202.00;;;18.00
22828;BMP180;11580;52.562;13.418;2022-09-09T05:03:39;100212.00;;;18.10
22828;BMP180;11580;52.562;13.418;2022-09-09T05:06:13;100213.00;;;18.10
22828;BMP180;11580;52.562;13.418;2022-09-09T05:08:43;100212.00;;;18.20
22828;BMP180;11580;52.562;13.418;2022-09-09T05:11:16;100206.00;;;18.20
22828;BMP180;11580;52.562;13.418;2022-09-09T05:13:44;100192.00;;;18.30
22828;BMP180;11580;52.562;13.418;2022-09-09T05:16:12;100215.00;;;18.30
22828;BMP180;11580;52.562;13.418;2022-09-09T05:18:40;100216.00;;;18.40
22828;BMP180;11580;52.562;13.418;2022-09-09T05:21:11;100213.00;;;18.50
22828;BMP180;11580;52.562;13.418;2022-09-09T05:23:39;100207.00;;;18.50
22828;BMP180;11580;52.562;13.418;2022-09-09T05:26:11;100211.00;;;18.60
22828;BMP180;11580;52.562;13.418;2022-09-09T05:28:39;100219.00;;;18.70
22828;BMP180;11580;52.562;13.418;2022-09-09T05:31:10;100209.00;;;18.80
22828;BMP180;11580;52.562;13.418;2022-09-09T05:33:41;100215.00;;;18.80
22828;BMP180;11580;52.562;13.418;2022-09-09T05:36:12;100202.00;;;18.90
22828;BMP180;11580;52.562;13.418;2022-09-09T05:38:42;100210.00;;;19.00
22828;BMP180;11580;52.562;13.418;2022-09-09T05:41:11;100218.00;;;19.10
22828;BMP180;11580;52.562;13.418;2022-09-09T05:43:42;100215.00;;;19.20
22828;BMP180;11580;52.562;13.418;2022-09-09T05:46:13;100218.00;;;19.20
22828;BMP180;11580;52.562;13.418;2022-09-09T05:48:43;100208.00;;;19.30
22828;BMP180;11580;52.562;13.418;2022-09-09T05:51:16;100213.00;;;19.40
22828;BMP180;11580;52.562;13.418;2022-09-09T05:53:45;100214.00;;;19.40
22828;BMP180;11580;52.562;13.418;2022-09-09T05:56:17;100217.00;;;19.50
22828;BMP180;11580;52.562;13.418;2022-09-09T05:58:46;100214.00;;;19.50
22828;BMP180;11580;52.562;13.418;2022-09-09T06:01:18;100209.00;;;19.60
22828;BMP180;11580;52.562;13.418;2022-09-09T06:03:47;100226.00;;;19.60
22828;BMP180;11580;52.562;13.418;2022-09-09T06:06:19;100229.00;;;19.60
22828;BMP180;11580;52.562;13.418;2022-09-09T06:08:51;100225.00;;;19.70
22828;BMP180;11580;52.562;13.418;2022-09-09T06:11:21;100234.00;;;19.70
22828;BMP180;11580;52.562;13.418;2022-09-09T06:13:50;100239.00;;;19.70
22828;BMP180;11580;52.562;13.418;2022-09-09T06:16:22;100246.00;;;19.80
22828;BMP180;11580;52.562;13.418;2022-09-09T06:18:51;100244.00;;;19.80
22828;BMP180;11580;52.562;13.418;2022-09-09T06:21:24;100242.00;;;19.90
22828;BMP180;11580;52.562;13.418;2022-09-09T06:23:52;100252.00;;;19.90
22828;BMP180;11580;52.562;13.418;2022-09-09T06:26:23;100254.00;;;20.00
22828;BMP180;11580;52.562;13.418;2022-09-09T06:28:53;100250.00;;;20.10
22828;BMP180;11580;52.562;13.418;2022-09-09T06:31:22;100245.00;;;20.10
22828;BMP180;11580;52.562;13.418;2022-09-09T06:33:52;100248.00;;;20.20
22828;BMP180;11580;52.562;13.418;2022-09-09T06:36:25;100258.00;;;20.30
22828;BMP180;11580;52.562;13.418;2022-09-09T06:38:54;100251.00;;;20.30
22828;BMP180;11580;52.562;13.418;2022-09-09T06:41:27;100264.00;;;20.40
22828;BMP180;11580;52.562;13.418;2022-09-09T06:43:56;100259.00;;;20.40
22828;BMP180;11580;52.562;13.418;2022-09-09T06:46:31;100265.00;;;20.50
22828;BMP180;11580;52.562;13.418;2022-09-09T06:49:00;100258.00;;;20.50
22828;BMP180;11580;52.562;13.418;2022-09-09T06:51:32;100269.00;;;20.50
22828;BMP180;11580;52.562;13.418;2022-09-09T06:54:04;100272.00;;;20.50
22828;BMP180;11580;52.562;13.418;2022-09-09T06:56:35;100261.00;;;20.50
22828;BMP180;11580;52.562;13.418;2022-09-09T06:59:09;100266.00;;;20.60
22828;BMP180;11580;52.562;13.418;2022-09-09T07:01:39;100266.00;;;20.60
22828;BMP180;11580;52.562;13.418;2022-09-09T07:04:10;100268.00;;;20.60
22828;BMP180;11580;52.562;13.418;2022-09-09T07:06:45;100266.00;;;20.70
22828;BMP180;11580;52.562;13.418;2022-09-09T07:09:22;100265.00;;;20.80
22828;BMP180;11580;52.562;13.418;2022-09-09T07:11:52;100272.00;;;20.90
22828;BMP180;11580;52.562;13.418;2022-09-09T07:14:21;100265.00;;;21.00
22828;BMP180;11580;52.562;13.418;2022-09-09T07:16:53;100265.00;;;21.10
22828;BMP180;11580;52.562;13.418;2022-09-09T07:19:20;100268.00;;;21.10
22828;BMP180;11580;52.562;13.418;2022-09-09T07:21:52;100270.00;;;21.20
22828;BMP180;11580;52.562;13.418;2022-09-09T07:24:22;100271.00;;;21.30
22828;BMP180;11580;52.562;13.418;2022-09-09T07:26:50;100276.00;;;21.40
22828;BMP180;11580;52.562;13.418;2022-09-09T07:29:18;100272.00;;;21.50
22828;BMP180;11580;52.562;13.418;2022-09-09T07:31:45;100271.00;;;21.50
22828;BMP180;11580;52.562;13.418;2022-09-09T07:34:17;100274.00;;;21.70
22828;BMP180;11580;52.562;13.418;2022-09-09T07:36:45;100282.00;;;21.70
22828;BMP180;11580;52.562;13.418;2022-09-09T07:39:14;100280.00;;;21.80
22828;BMP180;11580;52.562;13.418;2022-09-09T07:41:49;100282.00;;;21.90
22828;BMP180;11580;52.562;13.418;2022-09-09T07:44:22;100276.00;;;22.00
22828;BMP180;11580;52.562;13.418;2022-09-09T07:46:58;100280.00;;;22.20
22828;BMP180;11580;52.562;13.418;2022-09-09T07:49:31;100286.00;;;22.30
22828;BMP180;11580;52.562;13.418;2022-09-09T07:51:59;100282.00;;;22.40
22828;BMP180;11580;52.562;13.418;2022-09-09T07:54:28;100287.00;;;22.50
22828;BMP180;11580;52.562;13.418;2022-09-09T07:56:55;100288.00;;;22.70
22828;BMP180;11580;52.562;13.418;2022-09-09T07:59:26;100289.00;;;22.90
22828;BMP180;11580;52.562;13.418;2022-09-09T08:01:56;100290.00;;;23.10
22828;BMP180;11580;52.562;13.418;2022-09-09T08:04:27;100290.00;;;23.30
22828;BMP180;11580;52.562;13.418;2022-09-09T08:06:58;100294.00;;;23.50
22828;BMP180;11580;52.562;13.418;2022-09-09T08:09:28;100291.00;;;23.70
22828;BMP180;11580;52.562;13.418;2022-09-09T08:12:04;100284.00;;;23.90
22828;BMP180;11580;52.562;13.418;2022-09-09T08:14:34;100304.00;;;24.10
22828;BMP180;11580;52.562;13.418;2022-09-09T08:17:01;100302.00;;;24.20
22828;BMP180;11580;52.562;13.418;2022-09-09T08:19:31;100301.00;;;24.30
22828;BMP180;11580;52.562;13.418;2022-09-09T08:22:00;100304.00;;;24.40
22828;BMP180;11580;52.562;13.418;2022-09-09T08:24:32;100298.00;;;24.50
22828;BMP180;11580;52.562;13.418;2022-09-09T08:26:59;100310.00;;;24.50
22828;BMP180;11580;52.562;13.418;2022-09-09T08:29:28;100297.00;;;24.50
22828;BMP180;11580;52.562;13.418;2022-09-09T08:31:57;100305.00;;;24.50
22828;BMP180;11580;52.562;13.418;2022-09-09T08:34:26;100310.00;;;24.50
22828;BMP180;11580;52.562;13.418;2022-09-09T08:36:56;100306.00;;;24.50
22828;BMP180;11580;52.562;13.418;2022-09-09T08:39:32;100306.00;;;24.40
22828;BMP180;11580;52.562;13.418;2022-09-09T08:42:33;100311.00;;;24.40
22828;BMP180;11580;52.562;13.418;2022-09-09T08:45:28;100317.00;;;24.40
22828;BMP180;11580;52.562;13.418;2022-09-09T08:48:16;100316.00;;;24.30
22828;BMP180;11580;52.562;13.418;2022-09-09T08:50:50;100311.00;;;24.30
22828;BMP180;11580;52.562;13.418;2022-09-09T08:53:27;100310.00;;;24.30
22828;BMP180;11580;52.562;13.418;2022-09-09T08:56:01;100320.00;;;24.30
22828;BMP180;11580;52.562;13.418;2022-09-09T08:58:47;100314.00;;;24.30
22828;BMP180;11580;52.562;13.418;2022-09-09T09:01:41;100319.00;;;24.30
22828;BMP180;11580;52.562;13.418;2022-09-09T09:04:41;100325.00;;;24.40
22828;BMP180;11580;52.562;13.418;2022-09-09T09:07:28;100326.00;;;24.50
22828;BMP180;11580;52.562;13.418;2022-09-09T09:10:04;100323.00;;;24.60
22828;BMP180;11580;52.562;13.418;2022-09-09T09:12:43;100320.00;;;24.70
22828;BMP180;11580;52.562;13.418;2022-09-09T09:15:20;100319.00;;;24.80
22828;BMP180;11580;52.562;13.418;2022-09-09T09:17:51;100323.00;;;25.00
22828;BMP180;11580;52.562;13.418;2022-09-09T09:20:30;100321.00;;;25.20
22828;BMP180;11580;52.562;13.418;2022-09-09T09:23:03;100315.00;;;25.30
22828;BMP180;11580;52.562;13.418;2022-09-09T09:25:36;100330.00;;;25.60
22828;BMP180;11580;52.562;13.418;2022-09-09T09:28:16;100335.00;;;25.80
22828;BMP180;11580;52.562;13.418;2022-09-09T09:30:52;100330.00;;;26.00
22828;BMP180;11580;52.562;13.418;2022-09-09T09:33:27;100336.00;;;26.30
22828;BMP180;11580;52.562;13.418;2022-09-09T09:35:57;100333.00;;;26.50
22828;BMP180;11580;52.562;13.418;2022-09-09T09:38:28;100339.00;;;26.70
22828;BMP180;11580;52.562;13.418;2022-09-09T09:40:59;100335.00;;;27.00
22828;BMP180;11580;52.562;13.418;2022-09-09T09:43:32;100334.00;;;27.20
22828;BMP180;11580;52.562;13.418;2022-09-09T09:46:04;100321.00;;;27.40
22828;BMP180;11580;52.562;13.418;2022-09-09T09:48:32;100340.00;;;27.50
22828;BMP180;11580;52.562;13.418;2022-09-09T09:51:06;100341.00;;;27.60
22828;BMP180;11580;52.562;13.418;2022-09-09T09:53:37;100334.00;;;27.60
22828;BMP180;11580;52.562;13.418;2022-09-09T09:56:12;100343.00;;;27.60
22828;BMP180;11580;52.562;13.418;2022-09-09T09:58:51;100347.00;;;27.60
22828;BMP180;11580;52.562;13.418;2022-09-09T10:01:26;100344.00;;;27.50
22828;BMP180;11580;52.562;13.418;2022-09-09T10:04:00;100342.00;;;27.40
22828;BMP180;11580;52.562;13.418;2022-09-09T10:06:32;100335.00;;;27.40
22828;BMP180;11580;52.562;13.418;2022-09-09T10:09:02;100339.00;;;27.30
22828;BMP180;11580;52.562;13.418;2022-09-09T10:11:44;100335.00;;;27.20
22828;BMP180;11580;52.562;13.418;2022-09-09T10:14:21;100340.00;;;27.20
22828;BMP180;11580;52.562;13.418;2022-09-09T10:17:09;100335.00;;;27.10
22828;BMP180;11580;52.562;13.418;2022-09-09T10:19:52;100339.00;;;27.00
22828;BMP180;11580;52.562;13.418;2022-09-09T10:22:32;100343.00;;;27.00
22828;BMP180;11580;52.562;13.418;2022-09-09T10:25:38;100336.00;;;26.90
22828;BMP180;11580;52.562;13.418;2022-09-09T10:28:36;100338.00;;;26.90
22828;BMP180;11580;52.562;13.418;2022-09-09T10:31:19;100344.00;;;26.90
22828;BMP180;11580;52.562;13.418;2022-09-09T10:33:54;100348.00;;;26.90
22828;BMP180;11580;52.562;13.418;2022-09-09T10:36:25;100341.00;;;26.90
22828;BMP180;11580;52.562;13.418;2022-09-09T10:38:59;100347.00;;;27.00
22828;BMP180;11580;52.562;13.418;2022-09-09T10:41:45;100338.00;;;27.00
22828;BMP180;11580;52.562;13.418;2022-09-09T10:44:39;100345.00;;;27.00
22828;BMP180;11580;52.562;13.418;2022-09-09T10:47:38;100349.00;;;27.00
22828;BMP180;11580;52.562;13.418;2022-09-09T10:50:29;100357.00;;;27.10
22828;BMP180;11580;52.562;13.418;2022-09-09T10:53:10;100364.00;;;27.10
22828;BMP180;11580;52.562;13.418;2022-09-09T10:55:43;100344.00;;;27.20
22828;BMP180;11580;52.562;13.418;2022-09-09T10:58:19;100345.00;;;27.30
22828;BMP180;11580;52.562;13.418;2022-09-09T11:00:52;100358.00;;;27.30
22828;BMP180;11580;52.562;13.418;2022-09-09T11:03:26;100346.00;;;27.30
22828;BMP180;11580;52.562;13.418;2022-09-09T11:06:00;100345.00;;;27.30
22828;BMP180;11580;52.562;13.418;2022-09-09T11:08:30;100348.00;;;27.40
22828;BMP180;11580;52.562;13.418;2022-09-09T11:11:03;100350.00;;;27.40
22828;BMP180;11580;52.562;13.418;2022-09-09T11:13:39;100341.00;;;27.40
22828;BMP180;11580;52.562;13.418;2022-09-09T11:16:27;100341.00;;;27.50
22828;BMP180;11580;52.562;13.418;2022-09-09T11:19:03;100351.00;;;27.50
22828;BMP180;11580;52.562;13.418;2022-09-09T11:21:42;100354.00;;;27.40
22828;BMP180;11580;52.562;13.418;2022-09-09T11:24:18;100355.00;;;27.40
22828;BMP180;11580;52.562;13.418;2022-09-09T11:26:58;100354.00;;;27.40
22828;BMP180;11580;52.562;13.418;2022-09-09T11:30:04;100351.00;;;27.40
22828;BMP180;11580;52.562;13.418;2022-09-09T11:36:05;100342.00;;;27.50
22828;BMP180;11580;52.562;13.418;2022-09-09T11:38:45;100350.00;;;27.60
22828;BMP180;11580;52.562;13.418;2022-09-09T11:41:15;100350.00;;;27.60
22828;BMP180;11580;52.562;13.418;2022-09-09T11:43:44;100352.00;;;27.70
22828;BMP180;11580;52.562;13.418;2022-09-09T11:46:15;100349.00;;;27.70
22828;BMP180;11580;52.562;13.418;2022-09-09T11:48:45;100343.00;;;27.70
22828;BMP180;11580;52.562;13.418;2022-09-09T11:51:27;100345.00;;;27.70
22828;BMP180;11580;52.562;13.418;2022-09-09T11:53:57;100333.00;;;27.70
22828;BMP180;11580;52.562;13.418;2022-09-09T11:56:29;100341.00;;;27.80
22828;BMP180;11580;52.562;13.418;2022-09-09T11:59:02;100347.00;;;27.80
22828;BMP180;11580;52.562;13.418;2022-09-09T12:01:41;100336.00;;;27.80
22828;BMP180;11580;52.562;13.418;2022-09-09T12:04:33;100319.00;;;27.90
22828;BMP180;11580;52.562;13.418;2022-09-09T12:07:25;100323.00;;;27.90
22828;BMP180;11580;52.562;13.418;2022-09-09T12:10:01;100307.00;;;27.90
22828;BMP180;11580;52.562;13.418;2022-09-09T12:12:32;100291.00;;;27.90
22828;BMP180;11580;52.562;13.418;2022-09-09T12:15:25;100299.00;;;27.90
22828;BMP180;11580;52.562;13.418;2022-09-09T12:17:57;100315.00;;;27.90
22828;BMP180;11580;52.562;13.418;2022-09-09T12:20:34;100309.00;;;28.00
22828;BMP180;11580;52.562;13.418;2022-09-09T12:23:28;100305.00;;;28.00
22828;BMP180;11580;52.562;13.418;2022-09-09T12:26:24;100300.00;;;28.00
22828;BMP180;11580;52.562;13.418;2022-09-09T12:29:04;100288.00;;;28.10
22828;BMP180;11580;52.562;13.418;2022-09-09T12:31:41;100305.00;;;28.20
22828;BMP180;11580;52.562;13.418;2022-09-09T12:34:23;100308.00;;;28.40
22828;BMP180;11580;52.562;13.418;2022-09-09T12:37:15;100305.00;;;28.40
22828;BMP180;11580;52.562;13.418;2022-09-09T12:39:50;100300.00;;;28.50
22828;BMP180;11580;52.562;13.418;2022-09-09T12:42:21;100295.00;;;28.40
22828;BMP180;11580;52.562;13.418;2022-09-09T12:44:55;100295.00;;;28.40
22828;BMP180;11580;52.562;13.418;2022-09-09T12:47:33;100298.00;;;28.30
22828;BMP180;11580;52.562;13.418;2022-09-09T12:50:03;100300.00;;;28.30
22828;BMP180;11580;52.562;13.418;2022-09-09T12:52:33;100295.00;;;28.30
22828;BMP180;11580;52.562;13.418;2022-09-09T12:55:06;100286.00;;;28.20
22828;BMP180;11580;52.562;13.418;2022-09-09T12:57:38;100290.00;;;28.20
22828;BMP180;11580;52.562;13.418;2022-09-09T13:00:13;100290.00;;;28.20
22828;BMP180;11580;52.562;13.418;2022-09-09T13:02:50;100302.00;;;28.20
22828;BMP180;11580;52.562;13.418;2022-09-09T13:05:22;100307.00;;;28.20
22828;BMP180;11580;52.562;13.418;2022-09-09T13:07:50;100291.00;;;28.20
22828;BMP180;11580;52.562;13.418;2022-09-09T13:10:28;100302.00;;;28.20
22828;BMP180;11580;52.562;13.418;2022-09-09T13:12:56;100312.00;;;28.20
22828;BMP180;11580;52.562;13.418;2022-09-09T13:15:28;100313.00;;;28.30
22828;BMP180;11580;52.562;13.418;2022-09-09T13:17:59;100315.00;;;28.30
22828;BMP180;11580;52.562;13.418;2022-09-09T13:20:28;100302.00;;;28.30
22828;BMP180;11580;52.562;13.418;2022-09-09T13:22:57;100312.00;;;28.40
22828;BMP180;11580;52.562;13.418;2022-09-09T13:25:27;100305.00;;;28.40
22828;BMP180;11580;52.562;13.418;2022-09-09T13:27:59;100295.00;;;28.40
22828;BMP180;11580;52.562;13.418;2022-09-09T13:30:29;100300.00;;;28.50
22828;BMP180;11580;52.562;13.418;2022-09-09T13:33:22;100286.00;;;28.50
22828;BMP180;11580;52.562;13.418;2022-09-09T13:35:54;100292.00;;;28.50
22828;BMP180;11580;52.562;13.418;2022-09-09T13:38:23;100285.00;;;28.60
22828;BMP180;11580;52.562;13.418;2022-09-09T13:40:58;100287.00;;;28.60
22828;BMP180;11580;52.562;13.418;2022-09-09T13:43:30;100284.00;;;28.60
22828;BMP180;11580;52.562;13.418;2022-09-09T13:46:00;100294.00;;;28.60
22828;BMP180;11580;52.562;13.418;2022-09-09T13:48:28;100289.00;;;28.60
22828;BMP180;11580;52.562;13.418;2022-09-09T13:50:58;100288.00;;;28.70
22828;BMP180;11580;52.562;13.418;2022-09-09T13:53:26;100286.00;;;28.70
22828;BMP180;11580;52.562;13.418;2022-09-09T13:55:55;100286.00;;;28.70
22828;BMP180;11580;52.562;13.418;2022-09-09T13:58:23;100291.00;;;28.80
22828;BMP180;11580;52.562;13.418;2022-09-09T14:00:52;100287.00;;;28.90
22828;BMP180;11580;52.562;13.418;2022-09-09T14:03:20;100291.00;;;29.00
22828;BMP180;11580;52.562;13.418;2022-09-09T14:05:47;100291.00;;;29.10
22828;BMP180;11580;52.562;13.418;2022-09-09T14:08:26;100292.00;;;29.10
22828;BMP180;11580;52.562;13.418;2022-09-09T14:11:04;100300.00;;;29.20
22828;BMP180;11580;52.562;13.418;2022-09-09T14:13:31;100301.00;;;29.20
22828;BMP180;11580;52.562;13.418;2022-09-09T14:15:58;100300.00;;;29.20
22828;BMP180;11580;52.562;13.418;2022-09-09T14:18:25;100298.00;;;29.20
22828;BMP180;11580;52.562;13.418;2022-09-09T14:20:52;100270.00;;;29.20
22828;BMP180;11580;52.562;13.418;2022-09-09T14:23:20;100301.00;;;29.10
22828;BMP180;11580;52.562;13.418;2022-09-09T14:25:47;100288.00;;;29.10
22828;BMP180;11580;52.562;13.418;2022-09-09T14:28:17;100286.00;;;29.10